Time;durP1;ratioP1;P1;durP2;ratioP2;P2;SDS_P1;SDS_P2;PMS_P1;PMS_P2;Temp;Humidity;BMP_temperature;BMP_pressure;BME280_temperature;BME280_humidity;BME280_pressure;Samples;Min_cycle;Max_cycle;Signal;HPM_P1;HPM_P2
2022/02/22 00:00:41;;;;;;;34.63;6.22;;;;;;;5.74;100.00;101555.59;2632024;36;20955;31
2022/02/22 00:05:50;;;;;;;47.50;7.30;;;;;;;5.60;100.00;101553.69;2622333;31;20977;31
2022/02/22 00:08:27;;;;;;;37.75;6.22;;;;;;;5.58;100.00;101560.94;2609602;39;20295;31
2022/02/22 00:16:25;;;;;;;44.10;6.38;;;;;;;5.64;100.00;101558.84;2601851;54;20069;31
2022/02/22 00:19:03;;;;;;;34.90;5.57;;;;;;;5.59;100.00;101573.34;2603147;46;20433;31
2022/02/22 00:24:13;;;;;;;38.72;6.57;;;;;;;5.54;100.00;101582.56;2602638;54;20096;31
2022/02/22 00:26:49;;;;;;;38.45;6.25;;;;;;;5.54;100.00;101586.09;2603102;47;20038;31
2022/02/22 00:34:39;;;;;;;38.03;6.20;;;;;;;5.41;100.00;101587.72;2624032;39;20968;31
2022/02/22 00:39:49;;;;;;;37.40;6.95;;;;;;;5.36;100.00;101608.44;2608320;39;20679;31
2022/02/22 00:44:59;;;;;;;36.08;5.95;;;;;;;5.28;100.00;101611.53;2603151;54;20365;31
2022/02/22 00:55:23;;;;;;;34.30;5.85;;;;;;;5.22;100.00;101639.41;2602743;54;20496;31
2022/02/22 01:00:33;;;;;;;33.90;5.20;;;;;;;5.15;100.00;101642.50;2603201;54;20408;31
2022/02/22 01:05:45;;;;;;;25.40;5.07;;;;;;;5.19;100.00;101650.25;2602931;54;20445;31
2022/02/22 01:10:59;;;;;;;34.90;5.07;;;;;;;5.16;100.00;101638.91;2603097;54;20069;31
2022/02/22 01:16:10;;;;;;;31.20;5.30;;;;;;;5.12;100.00;101659.53;2603021;54;20378;31
2022/02/22 01:21:20;;;;;;;26.08;4.45;;;;;;;5.13;100.00;101649.75;2603017;54;20027;31
2022/02/22 01:26:35;;;;;;;30.85;5.90;;;;;;;5.07;100.00;101662.44;2618169;39;20354;31
2022/02/22 01:29:11;;;;;;;28.85;4.93;;;;;;;5.00;100.00;101665.53;2612815;31;20375;31
2022/02/22 01:37:01;;;;;;;36.20;5.57;;;;;;;4.88;100.00;101667.88;2602724;54;20035;31
2022/02/22 01:39:37;;;;;;;31.98;5.38;;;;;;;4.84;100.00;101660.97;2641202;39;20246;31
2022/02/22 01:47:29;;;;;;;26.30;5.43;;;;;;;4.95;100.00;101670.22;2628756;39;20321;31
2022/02/22 01:50:08;;;;;;;26.73;6.27;;;;;;;4.90;100.00;101676.69;2609722;39;21581;31
2022/02/22 01:55:18;;;;;;;39.10;5.70;;;;;;;4.88;100.00;101659.88;2603430;54;20027;31
2022/02/22 02:00:28;;;;;;;32.90;5.25;;;;;;;4.78;100.00;101682.63;2603479;54;20026;31
2022/02/22 02:08:13;;;;;;;28.23;6.55;;;;;;;4.80;100.00;101675.44;2603604;54;21273;31
2022/02/22 02:13:21;;;;;;;38.20;6.05;;;;;;;4.70;100.00;101674.19;2603638;54;20923;31
2022/02/22 02:15:57;;;;;;;32.45;5.15;;;;;;;4.71;100.00;101675.88;2604203;54;20045;31
2022/02/22 02:21:10;;;;;;;33.67;5.13;;;;;;;4.70;100.00;101692.84;2603379;54;20076;31
2022/02/22 02:26:22;;;;;;;38.80;5.20;;;;;;;4.62;100.00;101697.69;2603383;54;20280;31
2022/02/22 02:31:46;;;;;;;35.20;5.70;;;;;;;4.51;100.00;101684.91;2608840;39;20662;31
2022/02/22 02:34:23;;;;;;;29.40;4.95;;;;;;;4.44;100.00;101687.00;2610332;39;21511;31
2022/02/22 02:44:48;;;;;;;29.88;5.95;;;;;;;4.36;100.00;101692.72;2603002;54;20463;31
2022/02/22 02:49:58;;;;;;;40.15;5.97;;;;;;;4.33;100.00;101703.53;2603436;54;20334;31
2022/02/22 02:55:14;;;;;;;31.63;5.18;;;;;;;4.30;100.00;101714.34;2603904;54;20946;31
2022/02/22 02:57:50;;;;;;;33.20;4.85;;;;;;;4.29;100.00;101709.94;2602793;47;20026;31
2022/02/22 03:03:09;;;;;;;35.45;5.50;;;;;;;4.18;100.00;101699.81;2602511;54;20046;31
2022/02/22 03:05:45;;;;;;;30.23;5.72;;;;;;;4.13;100.00;101707.16;2602828;47;20320;31
2022/02/22 03:08:21;;;;;;;29.45;5.32;;;;;;;4.17;100.00;101707.88;2609361;39;20374;31
2022/02/22 03:10:57;;;;;;;31.35;4.90;;;;;;;4.21;100.00;101712.09;2603088;54;20039;31
2022/02/22 03:16:08;;;;;;;28.38;5.45;;;;;;;4.24;100.00;101698.66;2602636;54;20404;31
2022/02/22 03:21:21;;;;;;;31.40;6.00;;;;;;;4.17;100.00;101700.75;2602577;54;20332;31
2022/02/22 03:26:30;;;;;;;29.10;4.50;;;;;;;4.16;100.00;101698.16;2602800;54;19946;31
2022/02/22 03:31:45;;;;;;;30.75;5.50;;;;;;;4.21;100.00;101709.44;2602696;54;20152;31
2022/02/22 03:34:21;;;;;;;36.22;6.05;;;;;;;4.28;100.00;101707.34;2602723;47;20042;31
2022/02/22 03:42:07;;;;;;;37.60;6.00;;;;;;;4.17;100.00;101723.88;2602778;54;20618;31
2022/02/22 03:47:22;;;;;;;35.50;5.97;;;;;;;4.18;100.00;101721.13;2602441;54;19946;31
2022/02/22 03:50:00;;;;;;;31.15;5.15;;;;;;;4.21;100.00;101715.66;2603293;47;20042;31
2022/02/22 03:57:54;;;;;;;26.13;4.35;;;;;;;4.11;100.00;101714.38;2602745;54;20034;31
2022/02/22 04:03:03;;;;;;;32.20;5.18;;;;;;;4.06;100.00;101719.03;2602394;54;20484;31
2022/02/22 04:05:39;;;;;;;23.17;4.68;;;;;;;4.04;100.00;101719.09;2609416;39;20335;31
2022/02/22 04:13:31;;;;;;;31.98;6.07;;;;;;;4.03;100.00;101743.16;2602017;54;20538;31
2022/02/22 04:16:07;;;;;;;32.45;5.22;;;;;;;4.01;100.00;101742.38;2602757;54;20422;31
2022/02/22 04:18:44;;;;;;;25.63;4.63;;;;;;;3.96;100.00;101737.28;2603100;47;20045;31
2022/02/22 04:29:10;;;;;;;31.10;4.57;;;;;;;3.92;100.00;101745.47;2602096;54;21636;31
2022/02/22 04:34:19;;;;;;;28.33;4.45;;;;;;;3.81;100.00;101744.19;2602599;54;20034;31
2022/02/22 04:42:02;;;;;;;35.90;5.47;;;;;;;3.67;100.00;101738.59;2602377;54;20651;31
2022/02/22 04:44:43;;;;;;;26.80;5.00;;;;;;;3.60;100.00;101742.47;2620717;36;21516;31
2022/02/22 04:49:53;;;;;;;29.50;5.40;;;;;;;3.50;100.00;101739.34;2602169;54;20725;31
2022/02/22 04:55:03;;;;;;;36.10;6.53;;;;;;;3.38;100.00;101747.91;2602347;54;20255;31
2022/02/22 05:00:12;;;;;;;32.65;4.75;;;;;;;3.23;100.00;101742.31;2631596;54;20474;-85
2022/02/22 05:10:29;;;;;;;35.53;6.57;;;;;;;3.33;100.00;101737.47;2624267;39;21173;31
2022/02/22 05:20:56;;;;;;;30.27;4.80;;;;;;;2.97;100.00;101746.97;2628982;39;21547;31
2022/02/22 05:23:35;;;;;;;26.70;4.90;;;;;;;2.96;100.00;101736.41;2603556;54;20096;31
2022/02/22 05:28:46;;;;;;;31.50;4.85;;;;;;;3.02;100.00;101738.78;2603071;54;21308;31
2022/02/22 05:31:21;;;;;;;43.60;5.30;;;;;;;3.03;100.00;101734.31;2614960;39;20904;31
2022/02/22 05:39:12;;;;;;;37.53;6.80;;;;;;;2.87;100.00;101744.75;2602668;54;20410;31
2022/02/22 05:44:22;;;;;;;41.97;6.37;;;;;;;2.69;100.00;101736.59;2602616;54;20102;31
2022/02/22 05:52:05;;;;;;;38.53;6.72;;;;;;;2.58;100.00;101738.88;2603084;54;20041;31
2022/02/22 05:57:17;;;;;;;32.85;5.25;;;;;;;2.42;100.00;101728.84;2614522;39;20905;31
2022/02/22 06:02:26;;;;;;;33.13;5.32;;;;;;;2.54;100.00;101734.59;2603358;54;20065;31
2022/02/22 06:05:01;;;;;;;35.83;5.55;;;;;;;2.55;100.00;101733.69;2603837;54;21414;31
2022/02/22 06:15:25;;;;;;;39.63;6.43;;;;;;;2.45;100.00;101741.16;2602458;54;20038;31
2022/02/22 06:20:35;;;;;;;38.20;5.60;;;;;;;2.39;100.00;101736.94;2609265;39;20586;31
2022/02/22 06:25:45;;;;;;;27.13;5.07;;;;;;;2.31;100.00;101725.75;2609463;39;20353;31
2022/02/22 06:36:02;;;;;;;27.35;5.50;;;;;;;2.33;100.00;101729.22;2624194;39;20875;31
2022/02/22 06:41:12;;;;;;;32.80;5.80;;;;;;;2.28;100.00;101725.88;2602784;54;21129;31
2022/02/22 06:48:55;;;;;;;31.60;5.38;;;;;;;2.38;100.00;101727.22;2603091;54;20091;31
2022/02/22 06:54:06;;;;;;;32.07;7.03;;;;;;;2.54;100.00;101723.97;2602831;54;20857;31
2022/02/22 06:59:18;;;;;;;33.33;5.50;;;;;;;2.73;100.00;101732.91;2604253;54;20304;31
2022/02/22 07:04:28;;;;;;;38.07;5.27;;;;;;;2.89;100.00;101721.63;2602650;54;20379;31
2022/02/22 07:12:10;;;;;;;29.88;5.25;;;;;;;3.24;100.00;101722.75;2603039;54;21502;31
2022/02/22 07:14:49;;;;;;;30.30;5.40;;;;;;;3.22;100.00;101721.94;2602623;47;20049;31
2022/02/22 07:19:59;;;;;;;31.42;5.75;;;;;;;3.34;100.00;101720.53;2602655;54;20465;31
2022/02/22 07:30:18;;;;;;;37.83;6.57;;;;;;;3.50;100.00;101708.31;2602305;54;20119;31
2022/02/22 07:35:29;;;;;;;30.58;5.47;;;;;;;3.65;100.00;101704.06;2602340;54;20010;31
2022/02/22 07:40:39;;;;;;;40.78;7.32;;;;;;;3.86;100.00;101690.69;2602447;54;20096;31
2022/02/22 07:45:51;;;;;;;38.50;7.23;;;;;;;4.04;100.00;101686.28;2602351;54;20757;31
2022/02/22 07:51:00;;;;;;;31.80;6.80;;;;;;;4.32;100.00;101685.81;2608904;39;20302;31
2022/02/22 07:56:09;;;;;;;32.45;7.40;;;;;;;4.56;100.00;101677.53;2602150;54;20498;31
2022/02/22 08:03:55;;;;;;;37.45;8.32;;;;;;;4.77;100.00;101664.94;2602530;54;20320;31
2022/02/22 08:06:31;;;;;;;37.50;8.77;;;;;;;4.84;100.00;101654.78;2602962;47;20046;31
2022/02/22 08:09:08;;;;;;;29.73;6.57;;;;;;;4.89;100.00;101653.63;2603265;54;20043;31
2022/02/22 08:16:59;;;;;;;37.58;6.80;;;;;;;5.00;100.00;101641.53;2602633;54;20800;31
2022/02/22 08:24:44;;;;;;;24.50;5.57;;;;;;;5.13;100.00;101628.41;2602838;54;20337;31
2022/02/22 08:27:21;;;;;;;26.85;5.80;;;;;;;5.18;100.00;101634.34;2602788;47;20031;31
2022/02/22 08:29:56;;;;;;;23.77;5.30;;;;;;;5.29;100.00;101626.63;2609522;39;20212;31
2022/02/22 08:37:39;;;;;;;27.10;5.40;;;;;;;5.57;100.00;101609.94;2602649;54;20038;31
2022/02/22 08:40:19;;;;;;;29.42;5.40;;;;;;;5.58;100.00;101602.78;2604597;46;20384;31
2022/02/22 08:48:08;;;;;;;25.08;5.25;;;;;;;5.66;100.00;101605.06;2601923;54;20038;31
2022/02/22 08:50:43;;;;;;;26.05;5.85;;;;;;;5.68;100.00;101587.97;2603313;54;20018;31
2022/02/22 08:58:35;;;;;;;25.02;6.22;;;;;;;5.91;100.00;101577.81;2602876;54;20023;31
2022/02/22 09:03:59;;;;;;;24.45;4.97;;;;;;;6.15;100.00;101570.19;2603021;54;20038;31
2022/02/22 09:06:35;;;;;;;32.53;5.47;;;;;;;6.03;100.00;101562.91;2603610;47;20383;31
2022/02/22 09:17:00;;;;;;;23.90;5.38;;;;;;;6.47;100.00;101543.38;2602625;54;20404;31
2022/02/22 09:22:12;;;;;;;28.90;6.68;;;;;;;6.56;100.00;101532.09;2602935;54;20736;31
2022/02/22 09:24:47;;;;;;;31.30;6.30;;;;;;;6.61;100.00;101526.47;2603866;46;20026;31
2022/02/22 09:40:37;;;;;;;23.40;5.70;;;;;;;6.79;100.00;101540.53;2608747;39;20542;31
2022/02/22 09:45:49;;;;;;;26.05;5.70;;;;;;;6.91;100.00;101542.44;2603061;54;20042;31
2022/02/22 09:51:11;;;;;;;25.95;5.10;;;;;;;6.93;100.00;101553.06;2603117;54;21298;31
2022/02/22 09:58:56;;;;;;;31.25;6.13;;;;;;;7.07;100.00;101541.50;2602754;54;20034;31
2022/02/22 10:06:40;;;;;;;25.80;6.20;;;;;;;6.96;100.00;101551.06;2608601;39;20375;31
2022/02/22 10:11:51;;;;;;;30.65;7.35;;;;;;;7.06;100.00;101558.50;2602661;54;20445;31
2022/02/22 10:17:06;;;;;;;33.53;6.17;;;;;;;6.84;100.00;101535.75;2602764;54;20065;31
2022/02/22 10:19:42;;;;;;;24.70;6.10;;;;;;;6.86;100.00;101520.47;2603523;54;20042;31
2022/02/22 10:30:04;;;;;;;34.38;7.53;;;;;;;6.95;100.00;101493.13;2602481;54;20437;31
2022/02/22 10:32:43;;;;;;;26.95;8.00;;;;;;;6.98;100.00;101482.22;2621657;36;20045;31
2022/02/22 10:37:53;;;;;;;24.85;7.60;;;;;;;6.77;100.00;101467.53;2602732;54;20321;31
2022/02/22 10:43:02;;;;;;;24.80;7.50;;;;;;;7.00;100.00;101445.50;2605054;31;20046;31
2022/02/22 10:53:20;;;;;;;32.35;9.00;;;;;;;7.14;100.00;101425.03;2603095;54;21116;31
2022/02/22 10:55:56;;;;;;;32.17;8.60;;;;;;;7.24;100.00;101403.88;2603372;54;20069;31
2022/02/22 11:03:45;;;;;;;;;;;;;;;7.26;100.00;101429.59;2609128;39;20374;31
2022/02/22 11:06:23;;;;;;;34.83;7.60;;;;;;;7.24;100.00;101414.59;2602746;47;20383;31
2022/02/22 11:16:45;;;;;;;31.45;7.57;;;;;;;7.18;100.00;101415.84;2602347;54;20655;31
2022/02/22 11:19:23;;;;;;;38.00;9.07;;;;;;;7.23;100.00;101408.38;2608923;39;20282;31
2022/02/22 11:27:13;;;;;;;38.55;9.07;;;;;;;7.17;100.00;101412.31;2602157;54;20427;31
2022/02/22 11:29:57;;;;;;;36.65;8.75;;;;;;;7.13;100.00;101407.25;2603062;47;20473;31
2022/02/22 11:37:52;;;;;;;35.05;8.85;;;;;;;7.05;100.00;101414.91;2602304;54;21281;31
2022/02/22 11:43:06;;;;;;;25.27;7.95;;;;;;;7.10;100.00;101402.97;2602564;54;20962;31
2022/02/22 11:48:17;;;;;;;28.30;7.50;;;;;;;7.16;100.00;101417.78;2602160;54;20031;31
2022/02/22 11:50:57;;;;;;;34.63;8.43;;;;;;;7.18;100.00;101426.53;2603213;47;21020;31
2022/02/22 11:58:49;;;;;;;34.53;10.17;;;;;;;7.25;100.00;101390.38;2607205;39;20351;31
2022/02/22 12:01:25;;;;;;;33.15;9.13;;;;;;;7.30;100.00;101372.22;2602202;47;20053;31
2022/02/22 12:04:11;;;;;;;29.00;9.60;;;;;;;7.29;100.00;101370.47;2602501;47;20038;31
2022/02/22 12:06:47;;;;;;;30.30;10.55;;;;;;;7.37;100.00;101349.38;2602876;46;20045;31
2022/02/22 12:14:53;;;;;;;37.03;11.20;;;;;;;7.51;100.00;101343.13;2602105;54;20426;31
2022/02/22 12:20:03;;;;;;;36.80;12.10;;;;;;;7.60;100.00;101320.19;2602281;54;20038;31
2022/02/22 12:22:40;;;;;;;42.05;12.48;;;;;;;7.62;100.00;101314.72;2621354;36;20595;31
2022/02/22 12:30:41;;;;;;;36.97;13.68;;;;;;;7.76;100.00;101321.81;2602127;54;20034;31
2022/02/22 12:33:19;;;;;;;38.53;13.20;;;;;;;7.84;100.00;101322.13;2602775;47;20366;31
2022/02/22 12:38:29;;;;;;;29.83;12.77;;;;;;;7.90;100.00;101302.94;2602029;54;20035;31
2022/02/22 12:41:13;;;;;;;31.67;12.60;;;;;;;7.91;100.00;101302.00;2602691;47;20050;31
2022/02/22 12:51:37;;;;;;;39.90;13.82;;;;;;;8.27;100.00;101260.09;2608210;39;20361;31
2022/02/22 12:54:18;;;;;;;38.10;14.60;;;;;;;8.33;100.00;101256.13;2602602;54;20042;31
2022/02/22 13:02:09;;;;;;;40.00;11.95;;;;;;;8.47;100.00;101264.06;2608303;39;20369;31
2022/02/22 13:09:59;;;;;;;33.33;11.57;;;;;;;8.73;100.00;101223.69;2613658;31;20409;31
2022/02/22 13:12:38;;;;;;;32.35;11.55;;;;;;;8.72;100.00;101222.84;2602722;54;20069;31
2022/02/22 13:23:09;;;;;;;32.10;11.40;;;;;;;8.92;100.00;101217.78;2608136;39;20303;31
2022/02/22 13:25:58;;;;;;;33.35;10.35;;;;;;;8.90;100.00;101201.78;2601991;47;20369;31
2022/02/22 13:28:41;;;;;;;29.75;9.70;;;;;;;8.98;100.00;101198.53;2602707;54;20035;31
2022/02/22 13:41:45;;;;;;;27.23;9.85;;;;;;;9.27;100.00;101161.34;2601900;54;20035;31
2022/02/22 13:46:57;;;;;;;27.48;9.30;;;;;;;9.29;100.00;101158.56;2608849;39;20319;31
2022/02/22 13:52:19;;;;;;;26.20;9.10;;;;;;;9.31;100.00;101142.34;2603355;54;20318;31
2022/02/22 14:00:17;;;;;;;18.45;7.75;;;;;;;9.46;100.00;101150.00;2602407;54;20395;31
2022/02/22 14:03:03;;;;;;;21.10;8.35;;;;;;;9.47;100.00;101159.78;2604384;46;19946;31
2022/02/22 14:08:33;;;;;;;23.48;7.97;;;;;;;9.51;100.00;101146.09;2604121;39;20034;31
2022/02/22 14:16:19;;;;;;;21.13;7.65;;;;;;;9.50;100.00;101130.97;2602607;54;20034;31
2022/02/22 14:21:29;;;;;;;22.75;8.20;;;;;;;9.52;100.00;101132.53;2602365;54;20034;31
2022/02/22 14:26:42;;;;;;;18.83;7.60;;;;;;;9.50;100.00;101122.91;2602482;54;20038;31
2022/02/22 14:29:19;;;;;;;17.20;7.57;;;;;;;9.45;100.00;101118.75;2602834;46;20414;31
2022/02/22 14:37:34;;;;;;;24.27;6.90;;;;;;;9.52;100.00;101103.00;2603369;54;20038;31
2022/02/22 14:45:25;;;;;;;18.25;6.25;;;;;;;9.48;100.00;101090.78;2602284;54;21662;31
2022/02/22 14:50:51;;;;;;;21.48;6.00;;;;;;;9.40;100.00;101104.81;2603348;54;20038;31
2022/02/22 15:09:07;;;;;;;26.08;7.75;;;;;;;9.30;100.00;101098.47;2602655;54;20030;31
2022/02/22 15:11:43;;;;;;;30.02;7.05;;;;;;;9.33;100.00;101100.06;2608913;39;20124;31
2022/02/22 15:22:33;;;;;;;27.87;6.77;;;;;;;9.38;100.00;101085.31;2602295;54;20446;31
2022/02/22 15:25:16;;;;;;;29.13;6.87;;;;;;;9.40;100.00;101082.50;2614439;39;20902;31
2022/02/22 15:30:43;;;;;;;35.67;6.22;;;;;;;9.42;100.00;101084.09;2621042;36;20700;31
2022/02/22 15:33:24;;;;;;;32.00;6.25;;;;;;;9.37;100.00;101083.59;2609381;39;20042;31
2022/02/22 15:41:21;;;;;;;33.55;7.05;;;;;;;9.30;100.00;101087.72;2602049;54;20792;31
2022/02/22 16:04:29;;;;;;;30.85;6.90;;;;;;;9.14;100.00;101085.41;2602872;54;20065;31
2022/02/22 16:07:19;;;;;;;44.17;8.57;;;;;;;9.14;100.00;101087.25;2602364;47;20045;31
2022/02/22 16:10:04;;;;;;;37.20;7.55;;;;;;;9.11;100.00;101086.53;2602745;47;20399;31
2022/02/22 16:12:48;;;;;;;39.83;8.40;;;;;;;9.15;100.00;101091.66;2620903;36;20042;31
2022/02/22 16:15:33;;;;;;;34.30;7.97;;;;;;;9.14;100.00;101084.56;2602938;47;20064;31
2022/02/22 16:24:00;;;;;;;40.55;9.73;;;;;;;9.18;100.00;101089.56;2600626;54;20235;31
2022/02/22 16:26:45;;;;;;;37.00;7.75;;;;;;;9.20;100.00;101097.50;2603129;46;20038;31
2022/02/22 16:32:16;;;;;;;39.42;8.35;;;;;;;9.23;100.00;101108.00;2609603;39;20551;31
2022/02/22 17:09:30;;;;;;;19.08;5.93;;;;;;;8.83;100.00;101235.44;2602815;54;20030;31
2022/02/22 17:20:36;;;;;;;31.65;6.25;;;;;;;8.57;100.00;101267.75;2607560;39;21361;31
2022/02/22 17:34:18;;;;;;;31.40;6.47;;;;;;;8.28;100.00;101344.94;2602100;54;20493;31
2022/02/22 17:39:44;;;;;;;20.05;3.92;;;;;;;7.95;100.00;101350.84;2601892;54;20093;31
2022/02/22 17:53:41;;;;;;;22.17;3.72;;;;;;;7.34;100.00;101379.06;2602221;54;20042;31
2022/02/22 17:56:20;;;;;;;19.23;3.33;;;;;;;7.21;100.00;101377.31;2603072;54;20035;31
2022/02/22 18:06:45;;;;;;;23.23;4.07;;;;;;;6.94;100.00;101403.09;2624112;39;20894;31
2022/02/22 18:11:58;;;;;;;21.73;4.07;;;;;;;6.82;100.00;101415.44;2602604;54;20523;31
2022/02/22 18:14:33;;;;;;;16.20;3.65;;;;;;;6.75;100.00;101424.81;2602257;47;21326;31
2022/02/22 18:20:06;;;;;;;18.20;3.92;;;;;;;6.58;100.00;101433.94;2603142;54;20031;31
2022/02/22 18:22:45;;;;;;;17.52;3.67;;;;;;;6.57;100.00;101434.88;2621176;36;21561;31
2022/02/22 18:25:22;;;;;;;12.90;3.20;;;;;;;6.56;100.00;101440.31;2602126;47;20043;31
2022/02/22 18:28:01;;;;;;;20.67;3.93;;;;;;;6.52;100.00;101446.81;2602245;47;20045;31
2022/02/22 18:33:28;;;;;;;24.27;7.15;;;;;;;6.41;100.00;101442.97;2602613;54;20042;31
2022/02/22 18:48:59;;;;;;;26.33;5.25;;;;;;;6.26;100.00;101482.22;2614000;39;21172;31
2022/02/22 18:51:34;;;;;;;17.80;3.95;;;;;;;6.19;100.00;101486.22;2613500;39;20945;31
2022/02/22 18:56:58;;;;;;;17.25;3.65;;;;;;;6.25;100.00;101495.66;2602605;54;20453;31
2022/02/22 19:02:21;;;;;;;23.48;4.53;;;;;;;6.19;100.00;101510.25;2602263;54;20394;31
2022/02/22 19:05:03;;;;;;;24.80;4.15;;;;;;;6.21;100.00;101520.88;2603362;54;20076;31
2022/02/22 19:13:00;;;;;;;22.13;3.97;;;;;;;6.14;100.00;101531.06;2602019;54;20026;31
2022/02/22 19:15:36;;;;;;;18.75;3.60;;;;;;;6.11;100.00;101536.56;2601016;47;20046;31
2022/02/22 19:20:48;;;;;;;21.13;4.68;;;;;;;6.03;100.00;101536.19;2598952;54;20061;31
2022/02/22 19:29:10;;;;;;;18.85;4.20;;;;;;;6.06;100.00;101555.56;2599034;54;21150;31
2022/02/22 19:49:19;;;;;;;18.55;3.95;;;;;;;6.43;100.00;101611.34;2599844;54;20045;31
2022/02/22 19:52:01;;;;;;;30.90;5.20;;;;;;;6.44;100.00;101610.41;2599904;54;20109;31
2022/02/22 19:59:52;;;;;;;22.60;4.80;;;;;;;6.47;100.00;101629.78;2599363;54;20792;31
2022/02/22 20:15:53;;;;;;;20.25;3.85;;;;;;;6.55;100.00;101650.75;2599113;54;21158;31
2022/02/22 20:18:34;;;;;;;20.10;3.73;;;;;;;6.58;100.00;101660.38;2599995;31;20355;31
2022/02/22 20:34:13;;;;;;;17.52;4.07;;;;;;;6.34;100.00;101676.91;2599133;54;20040;31
2022/02/22 20:36:53;;;;;;;15.00;3.80;;;;;;;6.35;100.00;101685.81;2599334;47;20909;31
2022/02/22 20:42:23;;;;;;;23.75;3.95;;;;;;;6.44;100.00;101687.94;2598955;54;19947;31
2022/02/22 20:45:00;;;;;;;14.35;2.92;;;;;;;6.43;100.00;101694.25;2599901;47;20045;31
2022/02/22 20:57:55;;;;;;;21.73;3.95;;;;;;;6.33;100.00;101712.66;2600068;54;21174;31
2022/02/22 21:00:40;;;;;;;17.75;3.45;;;;;;;6.25;100.00;101720.22;2599887;47;20358;31
2022/02/22 21:06:04;;;;;;;18.85;3.60;;;;;;;6.36;100.00;101728.50;2600171;54;20040;31
2022/02/22 21:11:17;;;;;;;14.80;3.30;;;;;;;6.52;100.00;101739.16;2599963;54;20767;31
2022/02/22 21:13:59;;;;;;;17.57;3.50;;;;;;;6.49;100.00;101752.72;2599878;47;20039;31
2022/02/22 21:16:40;;;;;;;15.00;2.70;;;;;;;6.53;100.00;101756.94;2600998;39;20148;31
2022/02/22 21:32:23;;;;;;;15.60;3.33;;;;;;;6.63;100.00;101774.19;2602660;54;20679;31
2022/02/22 21:37:49;;;;;;;19.38;3.47;;;;;;;6.61;100.00;101776.09;2602589;54;20437;31
2022/02/22 21:45:40;;;;;;;15.67;3.40;;;;;;;6.54;100.00;101795.28;2602702;54;20943;31
2022/02/22 21:48:26;;;;;;;12.10;3.20;;;;;;;6.51;100.00;101798.09;2602418;46;20046;31
2022/02/22 21:53:54;;;;;;;11.75;3.17;;;;;;;6.48;100.00;101797.31;2602808;54;20042;31
2022/02/22 21:59:12;;;;;;;17.33;3.10;;;;;;;6.55;100.00;101826.41;2609344;39;20346;31
2022/02/22 22:25:28;;;;;;;17.15;4.10;;;;;;;6.41;100.00;101864.63;2607258;39;20573;31
2022/02/22 22:28:11;;;;;;;16.60;4.20;;;;;;;6.36;100.00;101866.66;2603399;47;21024;31
2022/02/22 22:44:20;;;;;;;14.35;3.50;;;;;;;6.26;100.00;101919.78;2604308;31;20077;31
2022/02/22 22:55:28;;;;;;;15.45;3.10;;;;;;;6.10;100.00;101920.59;2604741;39;20401;31
2022/02/22 23:29:36;;;;;;;16.70;3.55;;;;;;;5.82;100.00;101984.41;2601970;54;20402;31
2022/02/22 23:35:28;;;;;;;19.85;4.45;;;;;;;5.72;100.00;101995.53;2602093;54;21322;31
2022/02/22 23:38:10;;;;;;;31.15;4.50;;;;;;;5.71;100.00;101992.94;2602293;46;20040;31
2022/02/22 23:51:14;;;;;;;20.60;4.10;;;;;;;5.77;100.00;102014.00;2602195;54;20034;31
